Airfield :
LOGIN :

Register | Disclaimer

   EN    FR    IT 

 










Legend :    VFR   Marginal VFR   IFR   Intensive IFR   Very Intensive IFR
Visi :
Ceiling :
>= 8 km
>= 3000ft
5 to 8 km
1000 to 3000 ft
1500m to 5 km
500 to 1000 ft
800 to 1500m
200 to 500 ft
< 800m
< 200 ft
Symbols :   Thunderstorms  Fog  Heavy snow  Heavy precipitations  Wind > 20 kt
SIGMETs :     Misc.  Thunderstorms  Icing  Turbulence  Mountain Waves  Volcanic Ashes






- Airport Elevation : 1830 ft


EBLB - Butgenbach Elsenborn

CURRENT METAR :
  • 271716Z AUTO 34006KT 1500 -SN OVC007/// M01/M01 Q0995 AMB

EXPIRED METARs :
  • 271713Z AUTO 34006KT 2100 -SN OVC007/// M01/M01 Q0995 YLO
  • 271644Z AUTO 36007KT 1500 -SN SCT005/// OVC018/// M01/M01 Q0994 AMB
  • 271625Z AUTO 01009KT 1600 -SN OVC004/// M01/M01 Q0993 YLO
  • 271622Z AUTO 01009KT 1300 -SN OVC004/// M01/M01 Q0993 AMB
  • 271603Z AUTO 02009KT 0750 SN SCT004/// OVC011/// M01/M01 Q0992 RED
  • 271455Z AUTO 04004KT 0250 +SN OVC005/// M01/M01 Q0989 RED
  • 271425Z AUTO 11004KT 0450 +SN OVC005/// M01/M01 Q0989 RED

Expired Forecast.



MET'MAP, your aeronautical weather chart ! - Copyright ORBIFLY December 2007 - Disclaimer

ORBIFLY MET'MAP TEAM :

Programming & Development : Alexandra Zaïnal
Concept & original design : Baudouin d'Aumeries
Assistance for programming : Marc-Olivier Méhu
Technical & hardware support : Manuel Goepfert

Contact : metmap@orbifly.com




SOURCES & CREDITS :

   NOAA